createdAt,value
2023-01-04T00:03:59.706Z,102115.06
2023-01-04T00:08:01.221Z,102111.75
2023-01-04T00:12:02.983Z,102106.00
2023-01-04T00:16:08.537Z,102099.13
2023-01-04T00:20:13.473Z,102091.47
2023-01-04T00:24:15.351Z,102081.53
2023-01-04T00:28:16.770Z,102071.16
2023-01-04T00:32:21.034Z,102061.81
2023-01-04T00:36:23.400Z,102059.22
2023-01-04T00:40:24.813Z,102051.56
2023-01-04T00:44:26.347Z,102038.03
2023-01-04T00:48:29.193Z,102030.97
2023-01-04T00:52:30.630Z,102025.75
2023-01-04T00:56:33.577Z,102015.56
2023-01-04T01:00:35.317Z,102008.41
2023-01-04T01:04:36.845Z,101985.97
2023-01-04T01:08:38.370Z,101978.06
2023-01-04T01:12:39.840Z,101985.53
2023-01-04T01:16:58.554Z,101991.63
2023-01-04T01:21:00.788Z,102005.28
2023-01-04T01:25:02.208Z,101998.16
2023-01-04T01:29:03.696Z,101995.66
2023-01-04T01:33:05.141Z,101997.91
2023-01-04T01:37:06.588Z,101989.41
2023-01-04T01:41:14.009Z,101992.16
2023-01-04T01:45:34.292Z,101991.63
2023-01-04T01:49:38.062Z,101997.13
2023-01-04T01:53:42.169Z,101983.72
2023-01-04T01:57:45.902Z,101989.19
2023-01-04T02:01:47.702Z,101982.63
2023-01-04T02:05:55.169Z,101978.75
2023-01-04T02:09:58.258Z,101975.50
2023-01-04T02:14:19.343Z,101965.06
2023-01-04T02:18:28.596Z,101947.28
2023-01-04T02:23:01.029Z,101915.72
2023-01-04T02:27:36.085Z,101902.56
2023-01-04T02:31:41.934Z,101884.41
2023-01-04T02:36:06.440Z,101878.09
2023-01-04T02:40:23.392Z,101863.03
2023-01-04T02:44:50.007Z,101857.28
2023-01-04T02:49:09.881Z,101837.81
2023-01-04T02:53:28.878Z,101840.78
2023-01-04T02:57:57.574Z,101839.78
2023-01-04T03:02:39.082Z,101847.75
2023-01-04T03:06:52.668Z,101835.75
2023-01-04T03:11:02.219Z,101822.50
2023-01-04T03:15:18.684Z,101820.34
2023-01-04T03:19:44.079Z,101804.97
2023-01-04T03:24:07.159Z,101807.13
2023-01-04T03:28:30.606Z,101797.34
2023-01-04T03:33:14.121Z,101781.53
2023-01-04T03:37:32.834Z,101771.59
2023-01-04T03:42:13.884Z,101763.63
2023-01-04T03:46:54.968Z,101752.88
2023-01-04T03:51:28.128Z,101733.25
2023-01-04T03:55:31.296Z,101737.66
2023-01-04T03:59:41.691Z,101737.09
2023-01-04T04:04:01.791Z,101721.47
2023-01-04T04:08:22.075Z,101726.97
2023-01-04T04:12:23.526Z,101714.59
2023-01-04T04:16:25.982Z,101708.03
2023-01-04T04:20:27.660Z,101688.06
2023-01-04T04:24:29.205Z,101671.28
2023-01-04T04:28:30.785Z,101662.44
2023-01-04T04:32:32.228Z,101653.13
2023-01-04T04:36:33.850Z,101649.56
2023-01-04T04:40:53.980Z,101647.72
2023-01-04T04:44:55.671Z,101631.56
2023-01-04T04:48:57.428Z,101622.25
2023-01-04T04:52:58.960Z,101613.44
2023-01-04T04:57:00.454Z,101599.66
2023-01-04T05:01:01.928Z,101591.88
2023-01-04T05:05:03.592Z,101579.00
2023-01-04T05:09:05.039Z,101576.69
2023-01-04T05:13:10.618Z,101562.78
2023-01-04T05:17:12.039Z,101554.66
2023-01-04T05:21:16.968Z,101538.19
2023-01-04T05:25:21.464Z,101518.88
2023-01-04T05:29:41.289Z,101512.22
2023-01-04T05:33:42.732Z,101496.75
2023-01-04T05:37:44.180Z,101471.78
2023-01-04T05:42:04.248Z,101471.56
2023-01-04T05:46:05.702Z,101463.25
2023-01-04T05:50:08.325Z,101447.91
2023-01-04T05:54:09.755Z,101454.91
2023-01-04T05:58:11.491Z,101439.72
2023-01-04T06:02:23.090Z,101427.50
2023-01-04T06:06:24.585Z,101430.91
2023-01-04T06:10:26.107Z,101423.28
2023-01-04T06:14:27.535Z,101408.34
2023-01-04T06:18:29.409Z,101409.75
2023-01-04T06:22:30.909Z,101395.31
2023-01-04T06:26:32.380Z,101395.44
2023-01-04T06:30:34.741Z,101384.56
2023-01-04T06:34:36.207Z,101367.13
2023-01-04T06:38:37.750Z,101353.88
2023-01-04T06:42:45.175Z,101354.69
2023-01-04T06:46:46.685Z,101345.38
2023-01-04T06:50:48.131Z,101337.03
2023-01-04T06:54:49.533Z,101330.28
2023-01-04T06:58:50.987Z,101307.84
2023-01-04T07:03:13.319Z,101314.66
2023-01-04T07:07:14.017Z,101313.00
2023-01-04T07:11:15.463Z,101314.38
2023-01-04T07:15:37.995Z,101299.22
2023-01-04T07:19:38.395Z,101279.47
2023-01-04T07:23:40.022Z,101281.78
2023-01-04T07:27:41.482Z,101266.84
2023-01-04T07:31:47.881Z,101264.09
2023-01-04T07:35:49.694Z,101263.22
2023-01-04T07:39:51.213Z,101258.47
2023-01-04T07:43:52.727Z,101251.53
2023-01-04T07:47:54.207Z,101255.59
2023-01-04T07:51:55.729Z,101252.03
2023-01-04T07:55:58.565Z,101242.13
2023-01-04T07:59:59.983Z,101230.97
2023-01-04T08:04:01.762Z,101225.97
2023-01-04T08:08:03.384Z,101212.03
2023-01-04T08:12:05.175Z,101198.47
2023-01-04T08:16:07.279Z,101197.84
2023-01-04T08:20:09.324Z,101179.28
2023-01-04T08:24:12.713Z,101176.69
2023-01-04T08:28:14.139Z,101177.19
2023-01-04T08:32:15.706Z,101182.06
2023-01-04T08:36:27.179Z,101191.00
2023-01-04T08:40:59.835Z,101173.34
2023-01-04T08:44:55.585Z,101169.66
2023-01-04T08:49:00.325Z,101156.72
2023-01-04T08:53:01.841Z,101161.44
2023-01-04T08:57:03.339Z,101179.41
2023-01-04T09:01:08.622Z,101164.38
2023-01-04T09:05:10.188Z,101161.44
2023-01-04T09:09:11.707Z,101170.00
2023-01-04T09:13:13.177Z,101153.38
2023-01-04T09:17:14.756Z,101159.88
2023-01-04T09:21:19.213Z,101153.63
2023-01-04T09:25:20.628Z,101152.50
2023-01-04T09:29:22.202Z,101141.13
2023-01-04T09:33:41.311Z,101137.09
2023-01-04T09:37:45.068Z,101123.50
2023-01-04T09:41:55.571Z,101100.50
2023-01-04T09:46:08.139Z,101095.16
2023-01-04T09:50:29.132Z,101087.22
2023-01-04T09:55:02.997Z,101073.28
2023-01-04T09:59:27.204Z,101076.06
2023-01-04T10:03:33.173Z,101073.47
2023-01-04T10:07:36.022Z,101059.38
2023-01-04T10:11:52.115Z,101055.19
2023-01-04T10:16:02.753Z,101054.19
2023-01-04T10:24:52.245Z,101025.03
2023-01-04T10:29:18.730Z,101026.66
2023-01-04T10:33:24.224Z,101020.00
2023-01-04T10:37:33.600Z,101009.28
2023-01-04T10:41:48.961Z,101008.34
2023-01-04T10:46:09.937Z,100979.66
2023-01-04T10:50:46.976Z,100967.81
2023-01-04T10:55:20.153Z,100961.16
2023-01-04T10:59:34.972Z,100952.91
2023-01-04T11:04:08.047Z,100939.31
2023-01-04T11:08:12.672Z,100928.56
2023-01-04T11:12:17.808Z,100921.13
2023-01-04T11:16:19.828Z,100915.41
2023-01-04T11:20:26.487Z,100905.34
2023-01-04T11:24:33.707Z,100895.69
2023-01-04T11:28:41.689Z,100876.06
2023-01-04T11:32:55.309Z,100885.31
2023-01-04T11:36:56.729Z,100885.91
2023-01-04T11:41:07.887Z,100878.75
2023-01-04T11:45:27.140Z,100875.63
2023-01-04T11:49:34.813Z,100872.22
2023-01-04T11:53:37.531Z,100856.22
2023-01-04T11:57:39.023Z,100844.44
2023-01-04T12:01:45.129Z,100844.25
2023-01-04T12:05:46.685Z,100820.31
2023-01-04T12:09:48.127Z,100818.13
2023-01-04T12:13:49.600Z,100805.28
2023-01-04T12:18:04.161Z,100796.34
2023-01-04T12:22:17.455Z,100781.06
2023-01-04T12:26:20.229Z,100790.34
2023-01-04T12:30:44.270Z,100799.75
2023-01-04T12:34:47.842Z,100784.47
2023-01-04T12:38:52.435Z,100790.69
2023-01-04T12:43:15.512Z,100770.31
2023-01-04T12:47:47.591Z,100778.44
2023-01-04T12:52:20.462Z,100771.97
2023-01-04T12:56:10.476Z,100768.50
2023-01-04T13:00:13.355Z,100773.91
2023-01-04T13:04:37.942Z,100746.78
2023-01-04T13:08:41.993Z,100751.19
2023-01-04T13:13:01.333Z,100763.78
2023-01-04T13:17:19.904Z,100749.63
2023-01-04T13:21:29.368Z,100730.44
2023-01-04T13:25:30.821Z,100727.78
2023-01-04T13:29:34.114Z,100712.97
2023-01-04T13:33:36.648Z,100711.63
2023-01-04T13:37:42.267Z,100697.97
2023-01-04T13:41:44.340Z,100699.09
2023-01-04T13:45:51.238Z,100699.09
2023-01-04T13:49:52.819Z,100698.84
2023-01-04T13:53:58.978Z,100689.13
2023-01-04T13:58:06.030Z,100690.38
2023-01-04T14:02:17.299Z,100687.41
2023-01-04T14:06:30.571Z,100691.50
2023-01-04T14:10:32.028Z,100692.06
2023-01-04T14:14:51.838Z,100674.06
2023-01-04T14:18:53.254Z,100695.00
2023-01-04T14:22:56.496Z,100709.00
2023-01-04T14:26:58.087Z,100664.16
2023-01-04T14:30:59.517Z,100679.09
2023-01-04T14:35:10.472Z,100660.03
2023-01-04T14:39:21.161Z,100672.56
2023-01-04T14:43:36.052Z,100674.41
2023-01-04T14:47:37.554Z,100649.78
2023-01-04T14:52:00.816Z,100643.47
2023-01-04T14:56:02.319Z,100649.66
2023-01-04T15:00:04.070Z,100637.25
2023-01-04T15:04:07.248Z,100652.06
2023-01-04T15:08:12.722Z,100631.94
2023-01-04T15:12:14.165Z,100644.94
2023-01-04T15:16:17.679Z,100631.38
2023-01-04T15:20:19.181Z,100609.38
2023-01-04T15:24:20.662Z,100600.06
2023-01-04T15:28:24.189Z,100593.22
2023-01-04T15:32:25.684Z,100600.56
2023-01-04T15:36:27.152Z,100606.00
2023-01-04T15:40:28.613Z,100592.28
2023-01-04T15:44:30.092Z,100592.50
2023-01-04T15:48:31.597Z,100589.75
2023-01-04T15:52:33.108Z,100586.72
2023-01-04T15:56:34.613Z,100568.31
2023-01-04T16:00:38.037Z,100572.09
2023-01-04T16:04:39.540Z,100554.81
2023-01-04T16:08:41.915Z,100563.19
2023-01-04T16:12:44.249Z,100558.81
2023-01-04T16:16:45.757Z,100538.63
2023-01-04T16:20:47.341Z,100518.34
2023-01-04T16:29:12.605Z,100528.19
2023-01-04T16:33:14.128Z,100518.03
2023-01-04T16:37:15.591Z,100512.41
2023-01-04T16:41:20.807Z,100506.84
2023-01-04T16:45:22.274Z,100491.16
2023-01-04T16:49:23.921Z,100501.78
2023-01-04T16:53:25.680Z,100484.28
2023-01-04T16:57:27.335Z,100462.44
2023-01-04T17:02:26.207Z,100473.72
2023-01-04T17:06:22.933Z,100461.13
2023-01-04T17:10:29.323Z,100455.56
2023-01-04T17:14:34.651Z,100459.53
2023-01-04T17:18:37.231Z,100457.53
2023-01-04T17:22:40.703Z,100442.81
2023-01-04T17:26:43.162Z,100429.66
2023-01-04T17:30:53.261Z,100427.59
2023-01-04T17:34:58.728Z,100420.91
2023-01-04T17:39:01.562Z,100422.31
2023-01-04T17:43:03.613Z,100418.16
2023-01-04T17:47:05.145Z,100397.03
2023-01-04T17:51:07.029Z,100416.22
2023-01-04T17:55:09.034Z,100403.66
2023-01-04T17:59:12.012Z,100403.06
2023-01-04T18:03:13.841Z,100396.16
2023-01-04T18:07:16.989Z,100388.53
2023-01-04T18:11:18.617Z,100393.69
2023-01-04T18:15:20.120Z,100398.78
2023-01-04T18:19:23.010Z,100382.72
2023-01-04T18:23:26.057Z,100382.84
2023-01-04T18:27:27.736Z,100388.69
2023-01-04T18:31:29.398Z,100395.97
2023-01-04T18:35:31.113Z,100377.91
2023-01-04T18:39:32.714Z,100380.91
2023-01-04T18:43:35.858Z,100371.06
2023-01-04T18:47:37.373Z,100380.50
2023-01-04T18:51:38.821Z,100362.09
2023-01-04T18:55:40.334Z,100376.06
2023-01-04T18:59:43.791Z,100362.31
2023-01-04T19:03:48.577Z,100356.69
2023-01-04T19:07:50.457Z,100354.34
2023-01-04T19:11:51.980Z,100337.72
2023-01-04T19:15:53.483Z,100347.22
2023-01-04T19:19:54.984Z,100350.69
2023-01-04T19:23:56.547Z,100347.13
2023-01-04T19:27:58.086Z,100344.94
2023-01-04T19:31:59.703Z,100337.00
2023-01-04T19:36:01.304Z,100331.19
2023-01-04T19:40:02.962Z,100326.00
2023-01-04T19:44:07.154Z,100337.50
2023-01-04T19:48:08.690Z,100331.53
2023-01-04T19:52:10.193Z,100320.81
2023-01-04T19:56:13.659Z,100331.03
2023-01-04T20:00:20.281Z,100315.78
2023-01-04T20:04:22.489Z,100317.06
2023-01-04T20:08:23.990Z,100306.88
2023-01-04T20:12:25.462Z,100332.03
2023-01-04T20:16:27.025Z,100307.72
2023-01-04T20:20:28.604Z,100305.75
2023-01-04T20:24:30.338Z,100305.63
2023-01-04T20:28:31.929Z,100302.28
2023-01-04T20:32:36.694Z,100306.50
2023-01-04T20:36:39.538Z,100306.50
2023-01-04T20:40:41.046Z,100297.19
2023-01-04T20:44:42.562Z,100298.88
2023-01-04T20:48:44.905Z,100307.53
2023-01-04T20:52:46.346Z,100279.59
2023-01-04T20:56:47.855Z,100280.38
2023-01-04T21:00:49.341Z,100283.03
2023-01-04T21:04:50.795Z,100291.31
2023-01-04T21:08:54.675Z,100293.75
2023-01-04T21:12:56.252Z,100281.94
2023-01-04T21:16:57.720Z,100297.63
2023-01-04T21:20:59.284Z,100279.28
2023-01-04T21:25:00.798Z,100276.38
2023-01-04T21:29:04.876Z,100265.97
2023-01-04T21:33:06.876Z,100260.88
2023-01-04T21:37:08.443Z,100252.31
2023-01-04T21:41:11.830Z,100254.91
2023-01-04T21:45:13.340Z,100258.22
2023-01-04T21:49:14.872Z,100264.16
2023-01-04T21:53:16.368Z,100291.19
2023-01-04T21:57:17.926Z,100307.28
2023-01-04T22:01:22.112Z,100303.72
2023-01-04T22:05:23.800Z,100295.03
2023-01-04T22:09:25.522Z,100285.81
2023-01-04T22:13:28.217Z,100280.09
2023-01-04T22:17:29.665Z,100277.44
2023-01-04T22:21:31.149Z,100273.78
2023-01-04T22:25:34.388Z,100279.69
2023-01-04T22:29:35.948Z,100265.28
2023-01-04T22:33:38.647Z,100284.66
2023-01-04T22:37:40.172Z,100273.59
2023-01-04T22:41:42.182Z,100283.31
2023-01-04T22:45:43.602Z,100297.69
2023-01-04T22:49:45.004Z,100284.19
2023-01-04T22:53:47.825Z,100301.31
2023-01-04T22:57:49.323Z,100285.72
2023-01-04T23:01:50.958Z,100300.09
2023-01-04T23:05:52.790Z,100296.94
2023-01-04T23:09:54.269Z,100291.09
2023-01-04T23:13:56.080Z,100279.66
2023-01-04T23:17:57.574Z,100270.03
2023-01-04T23:21:59.125Z,100273.66
2023-01-04T23:26:05.765Z,100257.38
2023-01-04T23:30:07.715Z,100264.91
2023-01-04T23:34:11.783Z,100259.06
2023-01-04T23:38:13.259Z,100253.81
2023-01-04T23:42:14.707Z,100249.97
2023-01-04T23:46:17.632Z,100259.44
2023-01-04T23:50:19.147Z,100252.28
2023-01-04T23:54:21.174Z,100253.69
2023-01-04T23:58:24.163Z,100259.16
